Asahikawa Air Base, Japan

3:06 PM JST on February 13, 2016 (GMT +0900)
Asahikawa | | Change Station
CLOSE
Current Station
Airport
Location: Asahikawa Airport,
Elevation: 682 ft
Nearby Weather Stations

Elev 682 ft 43.67 °N, 142.45 °E | Updated 6 minutes ago

Mostly Cloudy
Mostly Cloudy
43 °F
Feels Like 35 °F
N
15
Wind Variable Wind from South

Today
High -- | Low -- °F
--% Chance of Precip.
Yesterday
High -- | Low -- °F
Precip. -- in
Pressure 29.77 in
Visibility 6.2 miles
Clouds Few 1000 ft
Mostly Cloudy 2500 ft
Windchill 35 °F
Dew Point 39 °F
Humidity 87%
Rainfall 0.00 in
Snow Depth Not available.
6:33 AM 4:56 PM
Waxing Crescent, 27% visible
METAR RJEC 130600Z 18013KT 9999 VCSH FEW010 BKN025 06/04 Q1008
Pressure 29.77 in
Visibility 6.2 miles
Clouds Few 1000 ft
Mostly Cloudy 2500 ft
Windchill 35 °F
Dew Point 39 °F
Humidity 87%
Rainfall 0.00 in
Snow Depth Not available.
6:33 AM 4:56 PM
Waxing Crescent, 27% visible
METAR RJEC 130600Z 18013KT 9999 VCSH FEW010 BKN025 06/04 Q1008

10-Day Weather Forecast

No radar image for this location.
×

Almanac

Astronomy

Feb. 13, 2016 Rise Set
Actual Time
Civil Twilight
Nautical Twilight
Astronomical Twilight
Moon
Length of Visible Light
Length of Day
Tomorrow will be .
, % of the Moon is Illuminated

Today's Extremes

Country Highs Country Lows

Community

WunderPhotos

Upload Photos

1,892,508 photos uploaded!

WunderBlog® & News

Nearby

Air Quality

  Air Quality AQ Index Pollutant
Not available.

Snow Depth

Station Depth Elevation

Earthquake Activity

City Distance Mag. Time & Date
Minimum magnitude displayed is 2.5.

Coastal Water Temperatures

Place Temperature

Stations

Nearby Weather Stations

Station Location Temp. Windchill Dew Point Humidity Wind Precip. Elev Updated Type